Dauntless Aviation
Airports North America United States Washington
71WA

I-90/BELLEVUE BUSI PK BOEING COMP SVCS HDQ HELIPORT

BELLEVUE, WA, USA

Airport Info
Suggest Updated Information for this Airport

Location

Latitude / Longitude: 47°35'4"N / 122°7'46"W
  47°35.0727'N / 122°7.7739'W
  47.5845 / -122.1296
Elevation: 300 ft. (estimated)
Variation: 20E (1990)
From city: 04 miles SE of BELLEVUE, WA

Operations

Facility use: Private
Sectional chart: SEATTLE
Control tower: no
Boundary ARTCC: SEATTLE
FSS: SEATTLE [1-800-WX-BRIEF]
Segmented circle: no

Communications

Nearby radio navigation aids

VOR radial/distance VOR name Freq Var
SEA 39oT/11.6 SEATTLE VORTAC 116.80 19E
PAE 163oT/21.0 PAINE VOR/DME 110.60 20E
TCM 28oT/29.8 MCCHORD VORTAC 109.60 22E
 
NDB name Hdg/Dist Freq Var ID
RENTON 33oT/6.4 353 20E RNT
DONDO 29oT/15.1 224 19E ODD
KITSAP 77oT/26.0 206 20E PWT
CARNEY 70oT/30.6 274 20E CAN
GRAYE 36oT/32.5 216 18E GR
LACOMAS 27oT/38.7 328 18E LAC

Services

Runway Information

Helipad H1

Dimensions: 75 x 75 ft.
Surface: ASPHALT OR BITUMINOUS CONCRETE,NO SPECIAL SURFACE TREATMENT
 

Additional Remarks

Instrument Procedures

No published instrument procedures available
Topographic chart at:
Satellite photo at:
Airport distance calculator
From:
Weather Reports

METAR

KRNT
6.2nm S
KRNT 182153Z 20022G38KT 10SM CLR 15/03 A3009 RMK AO2 PK WND 19038/2152 SLP194 T01500033
KBFI
7.9nm SW
KBFI 182153Z 20015G29KT 10SM FEW039 SCT050 14/05 A3010 RMK AO2 PK WND 19037/2116 SLP193 T01440050
KSEA
11.1nm S
KSEA 182153Z 22021G36KT 10SM BKN042 BKN250 13/04 A3011 RMK AO2 PK WND 23036/2148 SLP204 T01330044
KPAE
20.9nm NW
KPAE 182153Z 21018G29KT 10SM SCT047 BKN065 16/04 A3006 RMK AO2 PK WND 20034/2103 SLP177 T01610039
KPWT
25.7nm SW
KPWT 182156Z AUTO 22023G28KT 10SM FEW043 14/06 A3010 RMK AO2 PK WND 21032/2115 SLP196 T01390056
KTIW
26.5nm S
KTIW 182153Z 23012G22KT 8SM -RA SCT038 BKN050 BKN060 12/06 A3014 RMK AO2 PK WND 26030/2134 RAE2056B42 SLP207 P0001 T01220061

TAF

KBFI
7.9nm SW
KBFI 181742Z 1818/1918 19012G24KT P6SM VCSH BKN023 OVC028 FM182000 18014G21KT P6SM VCSH SCT035 BKN045 FM190800 17010KT P6SM OVC050 FM191100 18009KT P6SM VCSH OVC030
KSEA
11.1nm S
KSEA 182057Z 1821/1924 20017G27KT P6SM VCSH SCT035 BKN050 BKN250 FM190900 20015KT P6SM VCSH SCT030 BKN040 FM191100 19012KT P6SM VCSH OVC030 FM191800 30009KT P6SM VCSH BKN035
KPAE
20.9nm NW
KPAE 181742Z 1818/1918 17024G38KT P6SM SCT020 FM181900 19020G25KT P6SM BKN030 OVC050 FM190700 21012KT P6SM OVC050 FM191100 18011KT P6SM VCSH OVC025
KTCM
31.3nm S
TAF KTCM 182100Z 1821/2003 20014G22KT 9999 VCSH BKN030 BKN050 620909 510009 QNH3012INS TEMPO 1821/1902 22022G30KT 8000 -SHRA BKN015 OVC025 520009 BECMG 1901/1902 25012G20KT 9999 VCSH SCT030 BKN040 510009 QNH3013INS BECMG 1905/1906 22012KT 9999 NSW SCT020 BKN030 QNH3015INS BECMG 1907/1908 22009KT 9999 VCSH BKN030 QNH3014INS BECMG 1915/1916 23012G18KT 9000 -SHRA BKN015 OVC020 QNH3014INS BECMG 1920/1921 23012KT 9999 NSW BKN040 BKN060 QNH3018INS TX13/1822Z TN05/1913Z
KGRF
35.8nm S
TAF KGRF 182100Z 1821/2003 18015G25KT 9000 -SHRA SCT020 BKN040 620452 510307 QNH3013INS BECMG 1901/1902 23010G20KT 9999 NSW SCT030 510307 QNH3011INS BECMG 1906/1907 25008KT 9999 BKN030 620302 QNH3015INS BECMG 1910/1911 19008KT 9999 VCSH BKN015 OVC030 610307 QNH3013INS BECMG 1916/1917 19008KT 9999 NSW FEW030 SCT060 QNH3014INS TX12/1821Z TN06/1912Z
Safelog

 

Dauntless Aviation

© 2007-2022 Dauntless Aviation, all rights reserved
Information provided via PilotNav comes from a variety of official and unofficial data sources. As errors are possible, do not use PilotNav for primary flight planning purposes. Verify any information that you receive via PilotNav with current and canonical charts and other official documents. The material in this database is subject to database copyrights held by Dauntless Aviation and may not be copied without the express permission of Dauntless Aviation - licenses for use of part of all of this data are available for purchase; enquire via the Dauntless Aviation helpdesk. A number of mechanisms and markers exist in the database to protect against and identify infringement / copyright. Automated queries against this website are strictly prohibited, and all activity is logged and analyzed.